sensor_id;sensor_type;location;lat;lon;timestamp;P1;durP1;ratioP1;P2;durP2;ratioP2
20232;SDS011;37438;55.674;13.074;2022-11-20T00:00:02;0.70;;;0.65;;
20232;SDS011;37438;55.674;13.074;2022-11-20T00:03:09;0.60;;;0.60;;
20232;SDS011;37438;55.674;13.074;2022-11-20T00:06:15;0.88;;;0.68;;
20232;SDS011;37438;55.674;13.074;2022-11-20T00:09:20;0.93;;;0.70;;
20232;SDS011;37438;55.674;13.074;2022-11-20T00:12:25;0.70;;;0.70;;
20232;SDS011;37438;55.674;13.074;2022-11-20T00:15:29;0.80;;;0.80;;
20232;SDS011;37438;55.674;13.074;2022-11-20T00:18:34;2.05;;;1.38;;
20232;SDS011;37438;55.674;13.074;2022-11-20T00:21:38;2.50;;;1.47;;
20232;SDS011;37438;55.674;13.074;2022-11-20T00:24:42;1.50;;;1.20;;
20232;SDS011;37438;55.674;13.074;2022-11-20T00:27:47;1.07;;;1.00;;
20232;SDS011;37438;55.674;13.074;2022-11-20T00:30:51;2.08;;;1.30;;
20232;SDS011;37438;55.674;13.074;2022-11-20T00:33:56;1.00;;;0.82;;
20232;SDS011;37438;55.674;13.074;2022-11-20T00:37:00;0.93;;;0.93;;
20232;SDS011;37438;55.674;13.074;2022-11-20T00:40:05;1.23;;;1.00;;
20232;SDS011;37438;55.674;13.074;2022-11-20T00:43:10;2.63;;;1.05;;
20232;SDS011;37438;55.674;13.074;2022-11-20T00:46:18;0.70;;;0.70;;
20232;SDS011;37438;55.674;13.074;2022-11-20T00:49:25;0.70;;;0.70;;
20232;SDS011;37438;55.674;13.074;2022-11-20T00:52:29;3.15;;;0.80;;
20232;SDS011;37438;55.674;13.074;2022-11-20T00:55:34;0.90;;;0.90;;
20232;SDS011;37438;55.674;13.074;2022-11-20T00:58:39;0.60;;;0.60;;
20232;SDS011;37438;55.674;13.074;2022-11-20T01:01:44;1.13;;;1.02;;
20232;SDS011;37438;55.674;13.074;2022-11-20T01:04:49;1.53;;;0.73;;
20232;SDS011;37438;55.674;13.074;2022-11-20T01:07:53;0.80;;;0.80;;
20232;SDS011;37438;55.674;13.074;2022-11-20T01:10:58;2.13;;;1.00;;
20232;SDS011;37438;55.674;13.074;2022-11-20T01:14:08;1.00;;;0.90;;
20232;SDS011;37438;55.674;13.074;2022-11-20T01:17:16;1.23;;;1.13;;
20232;SDS011;37438;55.674;13.074;2022-11-20T01:20:20;0.73;;;0.73;;
20232;SDS011;37438;55.674;13.074;2022-11-20T01:23:25;1.98;;;1.02;;
20232;SDS011;37438;55.674;13.074;2022-11-20T01:26:30;1.33;;;1.13;;
20232;SDS011;37438;55.674;13.074;2022-11-20T01:29:36;0.85;;;0.82;;
20232;SDS011;37438;55.674;13.074;2022-11-20T01:32:41;0.85;;;0.47;;
20232;SDS011;37438;55.674;13.074;2022-11-20T01:35:45;1.08;;;0.98;;
20232;SDS011;37438;55.674;13.074;2022-11-20T01:38:53;8.80;;;1.65;;
20232;SDS011;37438;55.674;13.074;2022-11-20T01:41:59;4.28;;;1.70;;
20232;SDS011;37438;55.674;13.074;2022-11-20T01:49:25;1.38;;;1.27;;
20232;SDS011;37438;55.674;13.074;2022-11-20T01:52:39;1.40;;;1.30;;
20232;SDS011;37438;55.674;13.074;2022-11-20T01:55:49;1.30;;;1.10;;
20232;SDS011;37438;55.674;13.074;2022-11-20T01:58:58;1.90;;;1.10;;
20232;SDS011;37438;55.674;13.074;2022-11-20T02:02:05;3.45;;;1.30;;
20232;SDS011;37438;55.674;13.074;2022-11-20T02:05:22;0.55;;;0.55;;
20232;SDS011;37438;55.674;13.074;2022-11-20T02:08:27;2.50;;;0.88;;
20232;SDS011;37438;55.674;13.074;2022-11-20T02:11:32;1.30;;;1.20;;
20232;SDS011;37438;55.674;13.074;2022-11-20T02:14:36;2.30;;;1.47;;
20232;SDS011;37438;55.674;13.074;2022-11-20T02:17:41;2.83;;;1.60;;
20232;SDS011;37438;55.674;13.074;2022-11-20T02:20:46;1.60;;;1.50;;
20232;SDS011;37438;55.674;13.074;2022-11-20T02:24:01;1.63;;;1.50;;
20232;SDS011;37438;55.674;13.074;2022-11-20T02:27:08;2.47;;;1.30;;
20232;SDS011;37438;55.674;13.074;2022-11-20T02:30:15;1.92;;;1.40;;
20232;SDS011;37438;55.674;13.074;2022-11-20T02:33:19;1.77;;;1.10;;
20232;SDS011;37438;55.674;13.074;2022-11-20T02:36:24;0.60;;;0.60;;
20232;SDS011;37438;55.674;13.074;2022-11-20T02:39:31;1.17;;;0.60;;
20232;SDS011;37438;55.674;13.074;2022-11-20T02:42:35;0.97;;;0.77;;
20232;SDS011;37438;55.674;13.074;2022-11-20T02:45:40;1.02;;;1.02;;
20232;SDS011;37438;55.674;13.074;2022-11-20T02:48:44;0.90;;;0.53;;
20232;SDS011;37438;55.674;13.074;2022-11-20T02:51:49;0.97;;;0.83;;
20232;SDS011;37438;55.674;13.074;2022-11-20T02:54:53;0.97;;;0.60;;
20232;SDS011;37438;55.674;13.074;2022-11-20T02:57:58;0.80;;;0.80;;
20232;SDS011;37438;55.674;13.074;2022-11-20T03:01:02;0.40;;;0.40;;
20232;SDS011;37438;55.674;13.074;2022-11-20T03:04:07;0.97;;;0.50;;
20232;SDS011;37438;55.674;13.074;2022-11-20T03:07:11;0.85;;;0.65;;
20232;SDS011;37438;55.674;13.074;2022-11-20T03:10:16;0.60;;;0.45;;
20232;SDS011;37438;55.674;13.074;2022-11-20T03:13:21;0.50;;;0.50;;
20232;SDS011;37438;55.674;13.074;2022-11-20T03:16:25;0.63;;;0.57;;
20232;SDS011;37438;55.674;13.074;2022-11-20T03:19:30;0.60;;;0.60;;
20232;SDS011;37438;55.674;13.074;2022-11-20T03:22:34;1.33;;;0.80;;
20232;SDS011;37438;55.674;13.074;2022-11-20T03:25:38;1.00;;;0.63;;
20232;SDS011;37438;55.674;13.074;2022-11-20T03:28:50;2.00;;;1.00;;
20232;SDS011;37438;55.674;13.074;2022-11-20T03:31:54;0.85;;;0.63;;
20232;SDS011;37438;55.674;13.074;2022-11-20T03:34:59;0.70;;;0.70;;
20232;SDS011;37438;55.674;13.074;2022-11-20T03:38:03;1.08;;;0.90;;
20232;SDS011;37438;55.674;13.074;2022-11-20T03:41:09;0.50;;;0.50;;
20232;SDS011;37438;55.674;13.074;2022-11-20T03:44:24;0.65;;;0.65;;
20232;SDS011;37438;55.674;13.074;2022-11-20T03:47:29;2.35;;;0.98;;
20232;SDS011;37438;55.674;13.074;2022-11-20T03:50:33;1.03;;;0.90;;
20232;SDS011;37438;55.674;13.074;2022-11-20T03:53:39;1.57;;;0.83;;
20232;SDS011;37438;55.674;13.074;2022-11-20T03:56:44;1.13;;;1.02;;
20232;SDS011;37438;55.674;13.074;2022-11-20T03:59:49;1.15;;;0.85;;
20232;SDS011;37438;55.674;13.074;2022-11-20T04:02:53;1.98;;;1.20;;
20232;SDS011;37438;55.674;13.074;2022-11-20T04:06:08;1.33;;;0.90;;
20232;SDS011;37438;55.674;13.074;2022-11-20T04:09:14;1.35;;;0.80;;
20232;SDS011;37438;55.674;13.074;2022-11-20T04:12:19;1.15;;;1.00;;
20232;SDS011;37438;55.674;13.074;2022-11-20T04:15:23;0.82;;;0.82;;
20232;SDS011;37438;55.674;13.074;2022-11-20T04:18:28;0.70;;;0.70;;
20232;SDS011;37438;55.674;13.074;2022-11-20T04:21:32;0.93;;;0.83;;
20232;SDS011;37438;55.674;13.074;2022-11-20T04:24:36;0.70;;;0.70;;
20232;SDS011;37438;55.674;13.074;2022-11-20T04:27:41;2.17;;;0.90;;
20232;SDS011;37438;55.674;13.074;2022-11-20T04:30:45;1.45;;;0.85;;
20232;SDS011;37438;55.674;13.074;2022-11-20T04:33:50;2.55;;;1.38;;
20232;SDS011;37438;55.674;13.074;2022-11-20T04:36:55;2.30;;;1.23;;
20232;SDS011;37438;55.674;13.074;2022-11-20T04:40:00;2.58;;;1.23;;
20232;SDS011;37438;55.674;13.074;2022-11-20T04:43:04;0.93;;;0.68;;
20232;SDS011;37438;55.674;13.074;2022-11-20T04:46:08;0.73;;;0.73;;
20232;SDS011;37438;55.674;13.074;2022-11-20T04:49:13;1.40;;;0.90;;
20232;SDS011;37438;55.674;13.074;2022-11-20T04:55:22;2.72;;;1.08;;
20232;SDS011;37438;55.674;13.074;2022-11-20T04:58:27;1.10;;;1.00;;
20232;SDS011;37438;55.674;13.074;2022-11-20T05:01:31;1.95;;;1.58;;
20232;SDS011;37438;55.674;13.074;2022-11-20T05:04:36;1.60;;;1.50;;
20232;SDS011;37438;55.674;13.074;2022-11-20T05:07:41;1.02;;;0.93;;
20232;SDS011;37438;55.674;13.074;2022-11-20T05:10:45;0.63;;;0.63;;
20232;SDS011;37438;55.674;13.074;2022-11-20T05:13:50;1.10;;;1.00;;
20232;SDS011;37438;55.674;13.074;2022-11-20T05:19:59;1.08;;;0.90;;
20232;SDS011;37438;55.674;13.074;2022-11-20T05:23:04;3.22;;;1.38;;
20232;SDS011;37438;55.674;13.074;2022-11-20T05:26:12;2.60;;;1.20;;
20232;SDS011;37438;55.674;13.074;2022-11-20T05:29:21;2.20;;;1.48;;
20232;SDS011;37438;55.674;13.074;2022-11-20T05:32:26;2.95;;;1.52;;
20232;SDS011;37438;55.674;13.074;2022-11-20T05:35:31;1.30;;;1.15;;
20232;SDS011;37438;55.674;13.074;2022-11-20T05:38:35;2.75;;;1.35;;
20232;SDS011;37438;55.674;13.074;2022-11-20T05:41:40;2.50;;;0.85;;
20232;SDS011;37438;55.674;13.074;2022-11-20T05:44:44;1.33;;;1.23;;
20232;SDS011;37438;55.674;13.074;2022-11-20T05:47:49;4.27;;;1.57;;
20232;SDS011;37438;55.674;13.074;2022-11-20T05:50:53;1.57;;;1.47;;
20232;SDS011;37438;55.674;13.074;2022-11-20T05:53:58;0.45;;;0.45;;
20232;SDS011;37438;55.674;13.074;2022-11-20T05:57:02;1.13;;;1.03;;
20232;SDS011;37438;55.674;13.074;2022-11-20T06:00:07;1.10;;;1.10;;
20232;SDS011;37438;55.674;13.074;2022-11-20T06:03:12;1.63;;;1.52;;
20232;SDS011;37438;55.674;13.074;2022-11-20T06:06:17;0.60;;;0.60;;
20232;SDS011;37438;55.674;13.074;2022-11-20T06:09:22;0.77;;;0.73;;
20232;SDS011;37438;55.674;13.074;2022-11-20T06:12:27;0.70;;;0.70;;
20232;SDS011;37438;55.674;13.074;2022-11-20T06:15:31;1.55;;;1.15;;
20232;SDS011;37438;55.674;13.074;2022-11-20T06:18:35;2.10;;;1.10;;
20232;SDS011;37438;55.674;13.074;2022-11-20T06:21:40;1.33;;;1.00;;
20232;SDS011;37438;55.674;13.074;2022-11-20T06:24:44;0.98;;;0.90;;
20232;SDS011;37438;55.674;13.074;2022-11-20T06:27:49;2.10;;;1.90;;
20232;SDS011;37438;55.674;13.074;2022-11-20T06:30:53;0.87;;;0.77;;
20232;SDS011;37438;55.674;13.074;2022-11-20T06:33:58;0.88;;;0.80;;
20232;SDS011;37438;55.674;13.074;2022-11-20T06:37:02;0.93;;;0.93;;
20232;SDS011;37438;55.674;13.074;2022-11-20T06:40:07;1.80;;;1.37;;
20232;SDS011;37438;55.674;13.074;2022-11-20T06:43:12;2.45;;;1.10;;
20232;SDS011;37438;55.674;13.074;2022-11-20T06:46:17;1.58;;;1.08;;
20232;SDS011;37438;55.674;13.074;2022-11-20T06:49:22;1.08;;;0.88;;
20232;SDS011;37438;55.674;13.074;2022-11-20T06:52:27;0.80;;;0.80;;
20232;SDS011;37438;55.674;13.074;2022-11-20T06:55:31;5.45;;;1.50;;
20232;SDS011;37438;55.674;13.074;2022-11-20T06:58:36;1.00;;;0.90;;
20232;SDS011;37438;55.674;13.074;2022-11-20T07:01:40;1.02;;;0.60;;
20232;SDS011;37438;55.674;13.074;2022-11-20T07:04:44;2.10;;;1.45;;
20232;SDS011;37438;55.674;13.074;2022-11-20T07:07:49;0.97;;;0.87;;
20232;SDS011;37438;55.674;13.074;2022-11-20T07:10:56;1.83;;;1.17;;
20232;SDS011;37438;55.674;13.074;2022-11-20T07:14:02;1.25;;;1.08;;
20232;SDS011;37438;55.674;13.074;2022-11-20T07:17:06;1.75;;;1.45;;
20232;SDS011;37438;55.674;13.074;2022-11-20T07:20:11;0.93;;;0.88;;
20232;SDS011;37438;55.674;13.074;2022-11-20T07:23:15;2.10;;;1.45;;
20232;SDS011;37438;55.674;13.074;2022-11-20T07:26:20;2.67;;;2.00;;
20232;SDS011;37438;55.674;13.074;2022-11-20T07:29:25;1.65;;;1.20;;
20232;SDS011;37438;55.674;13.074;2022-11-20T07:32:29;1.10;;;1.00;;
20232;SDS011;37438;55.674;13.074;2022-11-20T07:35:34;3.83;;;1.30;;
20232;SDS011;37438;55.674;13.074;2022-11-20T07:38:39;2.25;;;1.50;;
20232;SDS011;37438;55.674;13.074;2022-11-20T07:41:44;5.33;;;1.63;;
20232;SDS011;37438;55.674;13.074;2022-11-20T07:44:48;1.53;;;1.40;;
20232;SDS011;37438;55.674;13.074;2022-11-20T07:47:53;2.47;;;1.20;;
20232;SDS011;37438;55.674;13.074;2022-11-20T07:50:57;3.10;;;1.73;;
20232;SDS011;37438;55.674;13.074;2022-11-20T07:54:02;1.83;;;1.45;;
20232;SDS011;37438;55.674;13.074;2022-11-20T07:57:06;2.57;;;1.57;;
20232;SDS011;37438;55.674;13.074;2022-11-20T08:00:11;1.98;;;1.05;;
20232;SDS011;37438;55.674;13.074;2022-11-20T08:03:15;2.45;;;1.98;;
20232;SDS011;37438;55.674;13.074;2022-11-20T08:06:27;1.80;;;1.70;;
20232;SDS011;37438;55.674;13.074;2022-11-20T08:09:32;1.95;;;1.63;;
20232;SDS011;37438;55.674;13.074;2022-11-20T08:12:43;2.78;;;1.92;;
20232;SDS011;37438;55.674;13.074;2022-11-20T08:16:10;4.57;;;2.92;;
20232;SDS011;37438;55.674;13.074;2022-11-20T08:19:15;4.87;;;3.27;;
20232;SDS011;37438;55.674;13.074;2022-11-20T08:22:20;5.45;;;2.65;;
20232;SDS011;37438;55.674;13.074;2022-11-20T08:25:25;4.18;;;2.45;;
20232;SDS011;37438;55.674;13.074;2022-11-20T08:28:30;5.90;;;2.83;;
20232;SDS011;37438;55.674;13.074;2022-11-20T08:31:35;2.95;;;1.85;;
20232;SDS011;37438;55.674;13.074;2022-11-20T08:34:40;3.25;;;2.30;;
20232;SDS011;37438;55.674;13.074;2022-11-20T08:37:47;2.33;;;1.73;;
20232;SDS011;37438;55.674;13.074;2022-11-20T08:40:55;6.15;;;1.80;;
20232;SDS011;37438;55.674;13.074;2022-11-20T08:44:23;2.88;;;1.00;;
20232;SDS011;37438;55.674;13.074;2022-11-20T08:47:28;4.00;;;1.50;;
20232;SDS011;37438;55.674;13.074;2022-11-20T08:50:32;3.42;;;1.02;;
20232;SDS011;37438;55.674;13.074;2022-11-20T08:53:37;1.10;;;1.10;;
20232;SDS011;37438;55.674;13.074;2022-11-20T08:59:46;1.23;;;0.90;;
20232;SDS011;37438;55.674;13.074;2022-11-20T09:03:09;1.20;;;1.10;;
20232;SDS011;37438;55.674;13.074;2022-11-20T09:06:13;2.83;;;1.55;;
20232;SDS011;37438;55.674;13.074;2022-11-20T09:09:18;1.38;;;1.30;;
20232;SDS011;37438;55.674;13.074;2022-11-20T09:12:23;2.90;;;1.10;;
20232;SDS011;37438;55.674;13.074;2022-11-20T09:15:28;1.33;;;1.23;;
20232;SDS011;37438;55.674;13.074;2022-11-20T09:18:32;1.80;;;1.70;;
20232;SDS011;37438;55.674;13.074;2022-11-20T09:21:39;1.05;;;0.80;;
20232;SDS011;37438;55.674;13.074;2022-11-20T09:24:44;2.40;;;1.20;;
20232;SDS011;37438;55.674;13.074;2022-11-20T09:27:54;1.33;;;1.13;;
20232;SDS011;37438;55.674;13.074;2022-11-20T09:31:09;1.35;;;1.25;;
20232;SDS011;37438;55.674;13.074;2022-11-20T09:34:40;1.20;;;1.10;;
20232;SDS011;37438;55.674;13.074;2022-11-20T09:37:44;1.88;;;1.27;;
20232;SDS011;37438;55.674;13.074;2022-11-20T09:51:00;1.27;;;0.90;;
20232;SDS011;37438;55.674;13.074;2022-11-20T09:57:18;1.48;;;1.23;;
20232;SDS011;37438;55.674;13.074;2022-11-20T10:00:26;2.15;;;0.90;;
20232;SDS011;37438;55.674;13.074;2022-11-20T10:03:45;2.00;;;1.10;;
20232;SDS011;37438;55.674;13.074;2022-11-20T10:13:39;1.00;;;0.77;;
20232;SDS011;37438;55.674;13.074;2022-11-20T10:17:44;0.93;;;0.85;;
20232;SDS011;37438;55.674;13.074;2022-11-20T10:20:58;3.28;;;1.33;;
20232;SDS011;37438;55.674;13.074;2022-11-20T10:24:20;2.47;;;1.50;;
20232;SDS011;37438;55.674;13.074;2022-11-20T10:31:10;1.30;;;1.20;;
20232;SDS011;37438;55.674;13.074;2022-11-20T10:34:28;0.80;;;0.80;;
20232;SDS011;37438;55.674;13.074;2022-11-20T10:37:58;1.25;;;1.15;;
20232;SDS011;37438;55.674;13.074;2022-11-20T10:41:05;1.55;;;0.90;;
20232;SDS011;37438;55.674;13.074;2022-11-20T10:44:29;1.70;;;1.55;;
20232;SDS011;37438;55.674;13.074;2022-11-20T10:55:03;1.35;;;1.00;;
20232;SDS011;37438;55.674;13.074;2022-11-20T10:58:32;1.23;;;1.20;;
20232;SDS011;37438;55.674;13.074;2022-11-20T11:01:49;0.95;;;0.95;;
20232;SDS011;37438;55.674;13.074;2022-11-20T11:04:54;1.27;;;1.17;;
20232;SDS011;37438;55.674;13.074;2022-11-20T11:07:58;0.82;;;0.82;;
20232;SDS011;37438;55.674;13.074;2022-11-20T11:11:25;1.00;;;0.90;;
20232;SDS011;37438;55.674;13.074;2022-11-20T11:14:30;1.52;;;1.33;;
20232;SDS011;37438;55.674;13.074;2022-11-20T11:17:50;2.80;;;1.52;;
20232;SDS011;37438;55.674;13.074;2022-11-20T11:20:54;1.30;;;0.73;;
20232;SDS011;37438;55.674;13.074;2022-11-20T11:24:01;2.38;;;1.48;;
20232;SDS011;37438;55.674;13.074;2022-11-20T11:27:27;1.40;;;1.27;;
20232;SDS011;37438;55.674;13.074;2022-11-20T11:30:42;2.20;;;1.15;;
20232;SDS011;37438;55.674;13.074;2022-11-20T11:33:47;1.35;;;1.15;;
20232;SDS011;37438;55.674;13.074;2022-11-20T11:37:00;1.77;;;1.50;;
20232;SDS011;37438;55.674;13.074;2022-11-20T11:40:09;1.55;;;1.30;;
20232;SDS011;37438;55.674;13.074;2022-11-20T11:43:34;1.52;;;0.90;;
20232;SDS011;37438;55.674;13.074;2022-11-20T11:46:58;2.30;;;1.60;;
20232;SDS011;37438;55.674;13.074;2022-11-20T11:53:17;2.15;;;1.40;;
20232;SDS011;37438;55.674;13.074;2022-11-20T11:56:23;1.60;;;1.25;;
20232;SDS011;37438;55.674;13.074;2022-11-20T12:03:27;3.03;;;1.55;;
20232;SDS011;37438;55.674;13.074;2022-11-20T12:06:27;2.65;;;1.52;;
20232;SDS011;37438;55.674;13.074;2022-11-20T12:09:37;1.20;;;1.10;;
20232;SDS011;37438;55.674;13.074;2022-11-20T12:12:46;1.65;;;1.45;;
20232;SDS011;37438;55.674;13.074;2022-11-20T12:15:54;1.85;;;1.30;;
20232;SDS011;37438;55.674;13.074;2022-11-20T12:18:59;2.00;;;1.50;;
20232;SDS011;37438;55.674;13.074;2022-11-20T12:22:26;2.05;;;1.42;;
20232;SDS011;37438;55.674;13.074;2022-11-20T12:25:46;2.53;;;1.40;;
20232;SDS011;37438;55.674;13.074;2022-11-20T12:35:58;1.95;;;1.05;;
20232;SDS011;37438;55.674;13.074;2022-11-20T12:42:42;0.93;;;0.73;;
20232;SDS011;37438;55.674;13.074;2022-11-20T12:50:21;0.77;;;0.77;;
20232;SDS011;37438;55.674;13.074;2022-11-20T12:56:50;1.13;;;0.88;;
20232;SDS011;37438;55.674;13.074;2022-11-20T13:06:37;0.90;;;0.90;;
20232;SDS011;37438;55.674;13.074;2022-11-20T13:09:46;1.90;;;0.80;;
20232;SDS011;37438;55.674;13.074;2022-11-20T13:12:57;1.10;;;1.00;;
20232;SDS011;37438;55.674;13.074;2022-11-20T13:16:10;2.65;;;1.75;;
20232;SDS011;37438;55.674;13.074;2022-11-20T13:19:19;1.67;;;1.58;;
20232;SDS011;37438;55.674;13.074;2022-11-20T13:22:28;1.60;;;1.50;;
20232;SDS011;37438;55.674;13.074;2022-11-20T13:25:45;1.58;;;1.20;;
20232;SDS011;37438;55.674;13.074;2022-11-20T13:32:16;1.60;;;1.00;;
20232;SDS011;37438;55.674;13.074;2022-11-20T13:35:24;1.90;;;1.33;;
20232;SDS011;37438;55.674;13.074;2022-11-20T13:38:46;0.80;;;0.80;;
20232;SDS011;37438;55.674;13.074;2022-11-20T13:41:55;1.33;;;1.17;;
20232;SDS011;37438;55.674;13.074;2022-11-20T13:45:02;2.58;;;0.95;;
20232;SDS011;37438;55.674;13.074;2022-11-20T13:48:22;1.20;;;0.95;;
20232;SDS011;37438;55.674;13.074;2022-11-20T13:51:48;1.08;;;1.00;;
20232;SDS011;37438;55.674;13.074;2022-11-20T14:01:39;3.38;;;1.50;;
20232;SDS011;37438;55.674;13.074;2022-11-20T14:04:48;4.65;;;1.95;;
20232;SDS011;37438;55.674;13.074;2022-11-20T14:07:54;1.70;;;1.60;;
20232;SDS011;37438;55.674;13.074;2022-11-20T14:14:28;1.33;;;1.23;;
20232;SDS011;37438;55.674;13.074;2022-11-20T14:17:35;1.17;;;1.08;;
20232;SDS011;37438;55.674;13.074;2022-11-20T14:20:40;2.10;;;1.75;;
20232;SDS011;37438;55.674;13.074;2022-11-20T14:23:46;3.00;;;1.00;;
20232;SDS011;37438;55.674;13.074;2022-11-20T14:26:51;3.60;;;1.75;;
20232;SDS011;37438;55.674;13.074;2022-11-20T14:29:56;2.28;;;1.88;;
20232;SDS011;37438;55.674;13.074;2022-11-20T14:33:04;1.98;;;1.55;;
20232;SDS011;37438;55.674;13.074;2022-11-20T14:36:15;2.00;;;1.73;;
20232;SDS011;37438;55.674;13.074;2022-11-20T14:39:22;1.55;;;1.45;;
20232;SDS011;37438;55.674;13.074;2022-11-20T14:42:43;3.47;;;1.77;;
20232;SDS011;37438;55.674;13.074;2022-11-20T14:49:08;2.30;;;1.80;;
20232;SDS011;37438;55.674;13.074;2022-11-20T14:58:34;3.50;;;2.55;;
20232;SDS011;37438;55.674;13.074;2022-11-20T15:01:38;3.37;;;2.43;;
20232;SDS011;37438;55.674;13.074;2022-11-20T15:05:17;2.28;;;1.65;;
20232;SDS011;37438;55.674;13.074;2022-11-20T15:08:14;1.55;;;1.45;;
20232;SDS011;37438;55.674;13.074;2022-11-20T15:11:19;2.42;;;1.60;;
20232;SDS011;37438;55.674;13.074;2022-11-20T15:14:30;1.42;;;1.30;;
20232;SDS011;37438;55.674;13.074;2022-11-20T15:17:36;2.45;;;1.70;;
20232;SDS011;37438;55.674;13.074;2022-11-20T15:20:42;5.82;;;2.05;;
20232;SDS011;37438;55.674;13.074;2022-11-20T15:23:47;2.85;;;2.05;;
20232;SDS011;37438;55.674;13.074;2022-11-20T15:26:52;4.20;;;2.30;;
20232;SDS011;37438;55.674;13.074;2022-11-20T15:29:56;7.30;;;2.07;;
20232;SDS011;37438;55.674;13.074;2022-11-20T15:33:00;3.67;;;1.83;;
20232;SDS011;37438;55.674;13.074;2022-11-20T15:36:05;1.97;;;1.77;;
20232;SDS011;37438;55.674;13.074;2022-11-20T15:39:09;2.80;;;2.03;;
20232;SDS011;37438;55.674;13.074;2022-11-20T15:42:15;2.30;;;1.67;;
20232;SDS011;37438;55.674;13.074;2022-11-20T15:45:19;3.35;;;1.98;;
20232;SDS011;37438;55.674;13.074;2022-11-20T15:48:24;4.93;;;2.97;;
20232;SDS011;37438;55.674;13.074;2022-11-20T15:51:32;3.35;;;2.38;;
20232;SDS011;37438;55.674;13.074;2022-11-20T15:54:39;5.97;;;3.38;;
20232;SDS011;37438;55.674;13.074;2022-11-20T15:57:43;3.38;;;2.72;;
20232;SDS011;37438;55.674;13.074;2022-11-20T16:00:47;4.33;;;2.70;;
20232;SDS011;37438;55.674;13.074;2022-11-20T16:03:52;4.83;;;3.10;;
20232;SDS011;37438;55.674;13.074;2022-11-20T16:06:56;5.07;;;4.05;;
20232;SDS011;37438;55.674;13.074;2022-11-20T16:10:00;5.57;;;3.38;;
20232;SDS011;37438;55.674;13.074;2022-11-20T16:13:09;3.83;;;2.55;;
20232;SDS011;37438;55.674;13.074;2022-11-20T16:16:36;6.70;;;2.70;;
20232;SDS011;37438;55.674;13.074;2022-11-20T16:19:41;3.55;;;2.65;;
20232;SDS011;37438;55.674;13.074;2022-11-20T16:22:46;3.20;;;2.70;;
20232;SDS011;37438;55.674;13.074;2022-11-20T16:25:50;4.05;;;2.80;;
20232;SDS011;37438;55.674;13.074;2022-11-20T16:28:55;6.55;;;2.83;;
20232;SDS011;37438;55.674;13.074;2022-11-20T16:31:59;8.40;;;3.58;;
20232;SDS011;37438;55.674;13.074;2022-11-20T16:35:04;5.37;;;3.57;;
20232;SDS011;37438;55.674;13.074;2022-11-20T16:38:11;5.10;;;2.80;;
20232;SDS011;37438;55.674;13.074;2022-11-20T16:41:15;6.30;;;4.40;;
20232;SDS011;37438;55.674;13.074;2022-11-20T16:44:19;6.13;;;3.90;;
20232;SDS011;37438;55.674;13.074;2022-11-20T16:50:29;5.63;;;3.75;;
20232;SDS011;37438;55.674;13.074;2022-11-20T16:53:33;6.38;;;3.88;;
20232;SDS011;37438;55.674;13.074;2022-11-20T16:56:37;14.33;;;6.20;;
20232;SDS011;37438;55.674;13.074;2022-11-20T16:59:42;7.45;;;3.28;;
20232;SDS011;37438;55.674;13.074;2022-11-20T17:02:46;5.55;;;3.40;;
20232;SDS011;37438;55.674;13.074;2022-11-20T17:05:51;2.40;;;1.93;;
20232;SDS011;37438;55.674;13.074;2022-11-20T17:08:56;2.60;;;1.90;;
20232;SDS011;37438;55.674;13.074;2022-11-20T17:12:00;4.22;;;2.60;;
20232;SDS011;37438;55.674;13.074;2022-11-20T17:15:04;6.50;;;3.80;;
20232;SDS011;37438;55.674;13.074;2022-11-20T17:18:09;14.68;;;7.45;;
20232;SDS011;37438;55.674;13.074;2022-11-20T17:21:14;13.00;;;5.30;;
20232;SDS011;37438;55.674;13.074;2022-11-20T17:24:20;14.15;;;7.90;;
20232;SDS011;37438;55.674;13.074;2022-11-20T17:27:28;8.07;;;5.22;;
20232;SDS011;37438;55.674;13.074;2022-11-20T17:30:32;6.22;;;3.22;;
20232;SDS011;37438;55.674;13.074;2022-11-20T17:33:37;5.30;;;3.17;;
20232;SDS011;37438;55.674;13.074;2022-11-20T17:36:43;13.30;;;8.25;;
20232;SDS011;37438;55.674;13.074;2022-11-20T17:42:52;13.93;;;8.80;;
20232;SDS011;37438;55.674;13.074;2022-11-20T17:45:57;7.65;;;6.63;;
20232;SDS011;37438;55.674;13.074;2022-11-20T17:49:02;5.07;;;4.28;;
20232;SDS011;37438;55.674;13.074;2022-11-20T17:52:07;4.18;;;3.17;;
20232;SDS011;37438;55.674;13.074;2022-11-20T17:55:11;6.93;;;3.38;;
20232;SDS011;37438;55.674;13.074;2022-11-20T17:58:16;5.60;;;4.00;;
20232;SDS011;37438;55.674;13.074;2022-11-20T18:01:20;8.77;;;4.00;;
20232;SDS011;37438;55.674;13.074;2022-11-20T18:04:25;5.78;;;4.28;;
20232;SDS011;37438;55.674;13.074;2022-11-20T18:07:30;4.60;;;3.23;;
20232;SDS011;37438;55.674;13.074;2022-11-20T18:10:39;9.15;;;5.50;;
20232;SDS011;37438;55.674;13.074;2022-11-20T18:13:44;16.43;;;6.40;;
20232;SDS011;37438;55.674;13.074;2022-11-20T18:17:10;16.50;;;6.78;;
20232;SDS011;37438;55.674;13.074;2022-11-20T18:20:17;11.07;;;4.72;;
20232;SDS011;37438;55.674;13.074;2022-11-20T18:23:33;9.20;;;4.60;;
20232;SDS011;37438;55.674;13.074;2022-11-20T18:26:37;9.32;;;3.70;;
20232;SDS011;37438;55.674;13.074;2022-11-20T18:29:47;6.53;;;4.15;;
20232;SDS011;37438;55.674;13.074;2022-11-20T18:32:54;6.93;;;4.63;;
20232;SDS011;37438;55.674;13.074;2022-11-20T18:36:15;6.10;;;3.80;;
20232;SDS011;37438;55.674;13.074;2022-11-20T18:39:22;9.10;;;5.07;;
20232;SDS011;37438;55.674;13.074;2022-11-20T18:42:27;9.27;;;4.45;;
20232;SDS011;37438;55.674;13.074;2022-11-20T18:45:50;9.55;;;4.65;;
20232;SDS011;37438;55.674;13.074;2022-11-20T18:48:54;20.20;;;7.88;;
20232;SDS011;37438;55.674;13.074;2022-11-20T18:51:59;13.27;;;7.20;;
20232;SDS011;37438;55.674;13.074;2022-11-20T18:55:04;10.33;;;6.50;;
20232;SDS011;37438;55.674;13.074;2022-11-20T18:58:09;11.18;;;6.22;;
20232;SDS011;37438;55.674;13.074;2022-11-20T19:01:13;8.30;;;5.27;;
20232;SDS011;37438;55.674;13.074;2022-11-20T19:04:18;9.90;;;6.03;;
20232;SDS011;37438;55.674;13.074;2022-11-20T19:07:22;12.00;;;6.50;;
20232;SDS011;37438;55.674;13.074;2022-11-20T19:13:33;11.70;;;5.90;;
20232;SDS011;37438;55.674;13.074;2022-11-20T19:16:38;10.27;;;6.18;;
20232;SDS011;37438;55.674;13.074;2022-11-20T19:19:42;10.20;;;5.67;;
20232;SDS011;37438;55.674;13.074;2022-11-20T19:22:50;11.80;;;6.90;;
20232;SDS011;37438;55.674;13.074;2022-11-20T19:25:59;15.30;;;6.90;;
20232;SDS011;37438;55.674;13.074;2022-11-20T19:29:09;12.98;;;5.72;;
20232;SDS011;37438;55.674;13.074;2022-11-20T19:32:16;8.20;;;4.60;;
20232;SDS011;37438;55.674;13.074;2022-11-20T19:35:21;7.60;;;4.83;;
20232;SDS011;37438;55.674;13.074;2022-11-20T19:38:25;11.87;;;6.47;;
20232;SDS011;37438;55.674;13.074;2022-11-20T19:41:30;12.23;;;6.00;;
20232;SDS011;37438;55.674;13.074;2022-11-20T19:47:40;8.80;;;5.22;;
20232;SDS011;37438;55.674;13.074;2022-11-20T19:51:12;7.15;;;5.57;;
20232;SDS011;37438;55.674;13.074;2022-11-20T19:54:18;9.32;;;4.93;;
20232;SDS011;37438;55.674;13.074;2022-11-20T19:57:22;9.65;;;4.10;;
20232;SDS011;37438;55.674;13.074;2022-11-20T20:00:26;10.60;;;5.78;;
20232;SDS011;37438;55.674;13.074;2022-11-20T20:03:35;11.13;;;5.75;;
20232;SDS011;37438;55.674;13.074;2022-11-20T20:06:40;11.35;;;6.05;;
20232;SDS011;37438;55.674;13.074;2022-11-20T20:09:45;10.17;;;5.57;;
20232;SDS011;37438;55.674;13.074;2022-11-20T20:12:49;7.22;;;5.20;;
20232;SDS011;37438;55.674;13.074;2022-11-20T20:15:53;9.57;;;5.60;;
20232;SDS011;37438;55.674;13.074;2022-11-20T20:19:00;7.88;;;5.03;;
20232;SDS011;37438;55.674;13.074;2022-11-20T20:22:05;9.85;;;6.07;;